Time;durP1;ratioP1;P1;durP2;ratioP2;P2;SDS_P1;SDS_P2;PMS_P1;PMS_P2;Temp;Humidity;BMP_temperature;BMP_pressure;BME280_temperature;BME280_humidity;BME280_pressure;Samples;Min_cycle;Max_cycle;Signal;HPM_P1;HPM_P2
2022/05/29 00:01:13;;;;;;;4.80;3.05;;;9.30;83.00;;;;;;4851224;29;20263;-87
2022/05/29 00:18:00;;;;;;;4.83;2.80;;;8.80;84.30;;;;;;4846559;29;20239;-87
2022/05/29 00:20:50;;;;;;;5.77;2.80;;;8.90;84.80;;;;;;4846292;29;20210;-86
2022/05/29 00:23:50;;;;;;;7.00;2.65;;;9.00;84.00;;;;;;4908364;29;20215;-86
2022/05/29 00:26:22;;;;;;;7.10;2.70;;;8.80;83.30;;;;;;4914709;29;20207;-87
2022/05/29 00:28:50;;;;;;;5.05;2.60;;;8.70;84.30;;;;;;4913521;29;20211;-87
2022/05/29 00:31:43;;;;;;;6.68;2.65;;;8.60;85.00;;;;;;4909897;29;20227;-87
2022/05/29 00:34:21;;;;;;;5.72;2.65;;;8.50;87.00;;;;;;4901973;29;20255;-87
2022/05/29 00:36:58;;;;;;;4.65;2.80;;;8.50;87.30;;;;;;4908779;29;20231;-87
2022/05/29 00:39:38;;;;;;;4.22;2.38;;;8.50;87.80;;;;;;4910228;29;20623;-87
2022/05/29 00:49:18;;;;;;;5.32;2.78;;;8.70;88.50;;;;;;4905517;29;20202;-87
2022/05/29 00:52:25;;;;;;;6.20;2.50;;;8.70;87.80;;;;;;4895168;29;20244;-87
2022/05/29 00:55:29;;;;;;;4.40;2.50;;;8.70;87.30;;;;;;4903514;29;20210;-87
2022/05/29 00:58:28;;;;;;;4.47;2.63;;;8.70;86.60;;;;;;4908846;29;20267;-86
2022/05/29 01:03:57;;;;;;;5.10;2.70;;;8.60;86.60;;;;;;4917000;29;20234;-87
2022/05/29 01:06:28;;;;;;;3.70;2.23;;;8.50;87.40;;;;;;4909696;29;20200;-86
2022/05/29 01:08:56;;;;;;;6.70;2.60;;;8.30;88.60;;;;;;4910906;29;20208;-86
2022/05/29 01:12:00;;;;;;;4.07;2.17;;;8.30;90.30;;;;;;4909525;29;20307;-86
2022/05/29 01:14:37;;;;;;;5.20;2.70;;;8.40;90.30;;;;;;4909762;29;20225;-86
2022/05/29 01:17:17;;;;;;;4.07;2.30;;;8.40;90.30;;;;;;4912294;29;20210;-86
2022/05/29 01:20:07;;;;;;;3.50;2.40;;;8.20;90.30;;;;;;4910033;29;20215;-88
2022/05/29 01:23:10;;;;;;;4.63;2.23;;;8.10;90.30;;;;;;4905208;29;20211;-86
2022/05/29 01:26:10;;;;;;;4.13;2.00;;;8.00;90.60;;;;;;4859672;29;20290;-87
2022/05/29 01:29:17;;;;;;;3.20;2.00;;;8.00;91.10;;;;;;4873587;29;20236;-87
2022/05/29 01:32:16;;;;;;;3.60;2.33;;;8.20;91.20;;;;;;4877376;29;20223;-88
2022/05/29 01:34:55;;;;;;;3.37;2.23;;;8.30;91.20;;;;;;4860938;29;20210;-86
2022/05/29 01:37:28;;;;;;;4.97;2.30;;;8.20;90.70;;;;;;4870497;29;20209;-88
2022/05/29 01:40:06;;;;;;;5.07;2.37;;;8.10;91.00;;;;;;4883064;29;20212;-86
2022/05/29 01:43:06;;;;;;;3.23;2.40;;;8.00;91.20;;;;;;4877178;29;20233;-86
2022/05/29 01:46:15;;;;;;;4.70;2.20;;;8.00;91.40;;;;;;4876502;29;20267;-87
2022/05/29 01:49:09;;;;;;;3.20;2.10;;;8.10;91.60;;;;;;4877581;29;20224;-86
2022/05/29 01:51:41;;;;;;;6.07;2.37;;;8.10;91.70;;;;;;4874743;29;20251;-87
2022/05/29 01:54:57;;;;;;;5.40;2.37;;;8.10;91.60;;;;;;4868638;29;20205;-87
2022/05/29 01:57:44;;;;;;;3.10;2.20;;;8.10;91.60;;;;;;4872726;29;20227;-86
2022/05/29 02:00:24;;;;;;;4.97;2.30;;;8.00;91.50;;;;;;4870941;29;20234;-87
2022/05/29 02:03:04;;;;;;;3.43;2.30;;;7.90;91.50;;;;;;4893786;29;20226;-87
2022/05/29 02:05:56;;;;;;;3.40;1.97;;;7.70;92.10;;;;;;4912007;29;20207;-87
2022/05/29 02:12:01;;;;;;;5.80;2.23;;;7.70;92.40;;;;;;4909761;29;20230;-87
2022/05/29 02:14:57;;;;;;;5.20;2.20;;;7.70;92.30;;;;;;4913754;29;20257;-86
2022/05/29 02:17:49;;;;;;;4.13;2.33;;;7.60;92.40;;;;;;4912126;29;20278;-87
2022/05/29 02:20:25;;;;;;;3.27;2.17;;;7.60;92.70;;;;;;4918070;29;20207;-86
2022/05/29 02:22:59;;;;;;;3.90;2.10;;;7.70;92.80;;;;;;4925973;29;20226;-88
2022/05/29 02:25:30;;;;;;;4.60;2.10;;;7.80;92.70;;;;;;4902553;29;20200;-86
2022/05/29 02:28:22;;;;;;;2.40;2.00;;;7.90;92.50;;;;;;4917952;29;20207;-86
2022/05/29 02:31:00;;;;;;;5.63;2.40;;;8.00;92.50;;;;;;4919354;29;20210;-86
2022/05/29 02:36:55;;;;;;;3.60;2.07;;;7.80;91.80;;;;;;4909912;29;20578;-87
2022/05/29 02:39:37;;;;;;;2.13;1.93;;;7.60;92.20;;;;;;4904551;29;20246;-86
2022/05/29 02:42:15;;;;;;;4.03;2.20;;;7.60;92.70;;;;;;4908124;29;20233;-86
2022/05/29 02:45:13;;;;;;;3.97;2.30;;;7.70;92.60;;;;;;4912800;29;20272;-86
2022/05/29 02:47:55;;;;;;;3.53;2.30;;;7.80;92.50;;;;;;4910418;29;20207;-87
2022/05/29 02:50:54;;;;;;;5.70;2.30;;;7.70;92.40;;;;;;4910027;29;20218;-86
2022/05/29 02:53:24;;;;;;;3.93;2.23;;;7.60;92.20;;;;;;4906796;29;20231;-88
2022/05/29 02:55:58;;;;;;;3.53;2.00;;;7.50;92.50;;;;;;4911308;29;20215;-87
2022/05/29 02:58:29;;;;;;;4.77;2.20;;;7.50;92.70;;;;;;4903441;29;20214;-88
2022/05/29 03:01:11;;;;;;;3.20;2.20;;;7.40;92.50;;;;;;4904204;29;20215;-86
2022/05/29 03:03:47;;;;;;;2.90;2.03;;;7.30;92.80;;;;;;4912841;29;20211;-87
2022/05/29 03:06:31;;;;;;;2.93;1.90;;;7.20;93.10;;;;;;4911010;29;20218;-87
2022/05/29 03:09:09;;;;;;;2.60;2.03;;;7.20;93.50;;;;;;4913400;29;20215;-86
2022/05/29 03:11:41;;;;;;;2.63;1.80;;;7.20;93.30;;;;;;4908847;29;20212;-86
2022/05/29 03:14:50;;;;;;;3.80;2.07;;;7.10;93.50;;;;;;4903782;29;20214;-87
2022/05/29 03:17:25;;;;;;;3.40;1.87;;;7.10;93.50;;;;;;4917427;29;20219;-87
2022/05/29 03:20:32;;;;;;;3.13;2.10;;;7.10;94.00;;;;;;4914680;29;20211;-87
2022/05/29 03:23:44;;;;;;;3.53;2.03;;;7.20;94.00;;;;;;4913052;29;20270;-87
2022/05/29 03:26:22;;;;;;;4.70;2.53;;;7.30;93.90;;;;;;4906156;29;20283;-86
2022/05/29 03:29:02;;;;;;;4.47;2.30;;;7.50;94.00;;;;;;4915565;29;20217;-86
2022/05/29 03:31:34;;;;;;;2.73;2.10;;;7.60;93.90;;;;;;4918360;29;20274;-86
2022/05/29 03:34:01;;;;;;;4.77;2.03;;;7.80;92.80;;;;;;4902785;29;20251;-86
2022/05/29 03:36:29;;;;;;;2.30;2.10;;;7.80;92.20;;;;;;4924607;29;20212;-87
2022/05/29 03:39:03;;;;;;;2.23;1.80;;;7.80;92.70;;;;;;4919290;29;20204;-86
2022/05/29 03:42:02;;;;;;;4.23;2.27;;;7.70;91.90;;;;;;4910283;29;20239;-86
2022/05/29 03:44:31;;;;;;;2.67;2.17;;;7.50;92.00;;;;;;4906807;29;20211;-86
2022/05/29 03:46:58;;;;;;;3.90;2.07;;;7.30;92.70;;;;;;4918406;29;20207;-86
2022/05/29 03:49:27;;;;;;;2.70;1.70;;;7.20;93.10;;;;;;4901049;29;20221;-86
2022/05/29 03:52:27;;;;;;;2.97;2.13;;;7.30;93.70;;;;;;4910519;29;20274;-86
2022/05/29 03:55:03;;;;;;;3.33;1.80;;;7.50;93.70;;;;;;4906540;29;20226;-86
2022/05/29 03:57:39;;;;;;;4.27;2.00;;;7.70;93.60;;;;;;4900948;29;20263;-86
2022/05/29 04:00:11;;;;;;;1.87;1.73;;;7.80;92.90;;;;;;4910542;29;20872;-86
2022/05/29 04:02:51;;;;;;;3.50;2.03;;;7.60;92.70;;;;;;4906832;29;20675;-86
2022/05/29 04:05:38;;;;;;;4.03;1.90;;;7.70;93.00;;;;;;4907527;29;20259;-86
2022/05/29 04:13:46;;;;;;;3.90;2.17;;;7.70;92.80;;;;;;4912018;29;20241;-86
2022/05/29 04:16:15;;;;;;;3.03;1.83;;;7.70;93.00;;;;;;4911616;29;20211;-86
2022/05/29 04:18:51;;;;;;;2.53;1.70;;;7.90;93.00;;;;;;4915138;29;20211;-87
2022/05/29 04:24:45;;;;;;;8.20;2.00;;;8.00;92.40;;;;;;4909452;29;20206;-87
2022/05/29 04:27:24;;;;;;;2.83;1.90;;;7.90;91.90;;;;;;4920053;29;20217;-86
2022/05/29 04:29:51;;;;;;;2.53;1.97;;;8.00;92.40;;;;;;4913573;29;20221;-86
2022/05/29 04:35:57;;;;;;;3.15;1.92;;;8.20;91.80;;;;;;4915737;29;20256;-86
2022/05/29 06:02:15;;;;;;;9.95;2.80;;;11.20;67.40;;;;;;4868293;29;20233;-86
2022/05/29 07:55:44;;;;;;;4.53;2.45;;;13.90;43.20;;;;;;5053069;23;20233;-88
2022/05/29 08:02:58;;;;;;;6.85;2.67;;;14.50;41.80;;;;;;4816067;29;20242;-88
2022/05/29 08:31:46;;;;;;;4.35;2.50;;;17.10;29.60;;;;;;4891350;29;20196;-91
2022/05/29 09:18:04;;;;;;;4.18;2.40;;;17.10;25.50;;;;;;4976166;28;20201;-88
2022/05/29 09:20:43;;;;;;;6.55;4.85;;;18.20;24.00;;;;;;4972464;28;20201;-90
2022/05/29 09:23:18;;;;;;;3.75;2.20;;;18.40;23.80;;;;;;4971212;28;20201;-87
2022/05/29 09:25:46;;;;;;;3.63;2.30;;;18.90;22.00;;;;;;4968014;28;20284;-87
2022/05/29 09:28:35;;;;;;;4.22;2.50;;;19.30;20.30;;;;;;4976581;28;20228;-85
2022/05/29 09:35:15;;;;;;;4.30;2.40;;;18.30;22.30;;;;;;4938987;28;20218;-87
2022/05/29 09:38:34;;;;;;;3.63;2.10;;;17.90;22.10;;;;;;4965088;28;20220;-89
2022/05/29 09:41:22;;;;;;;5.28;2.38;;;18.20;22.40;;;;;;4970311;28;20234;-89
2022/05/29 09:44:16;;;;;;;3.67;2.50;;;19.00;20.00;;;;;;4968243;28;20201;-88
2022/05/29 09:56:08;;;;;;;5.13;2.70;;;19.40;18.80;;;;;;4970848;28;20206;-89
2022/05/29 10:05:36;;;;;;;3.45;2.20;;;18.90;24.20;;;;;;4947097;29;20239;-88
2022/05/29 10:08:18;;;;;;;4.45;2.10;;;20.00;19.90;;;;;;4947438;29;20217;-87
2022/05/29 10:10:45;;;;;;;3.90;2.17;;;21.00;17.20;;;;;;4943644;29;20242;-84
2022/05/29 10:13:35;;;;;;;3.28;2.20;;;21.40;17.00;;;;;;4941140;29;20628;-84
2022/05/29 10:16:03;;;;;;;4.15;2.50;;;21.60;16.70;;;;;;4929056;29;20270;-85
2022/05/29 10:18:36;;;;;;;4.75;3.15;;;21.40;16.70;;;;;;4943038;29;20213;-86
2022/05/29 10:21:10;;;;;;;3.67;2.50;;;20.90;17.60;;;;;;4950732;29;20229;-86
2022/05/29 10:23:42;;;;;;;3.30;2.50;;;20.50;19.60;;;;;;4924701;29;20206;-87
2022/05/29 10:26:36;;;;;;;3.38;2.10;;;19.80;20.10;;;;;;4943280;29;20205;-90
2022/05/29 10:33:00;;;;;;;4.18;2.20;;;19.00;18.30;;;;;;4928201;29;20201;-89
2022/05/29 10:39:29;;;;;;;3.35;2.10;;;18.50;20.50;;;;;;4974544;29;20242;-89
2022/05/29 11:29:48;;;;;;;7.15;2.58;;;13.00;60.00;;;;;;4953314;29;20257;-88
2022/05/29 11:36:28;;;;;;;5.18;2.35;;;11.80;75.10;;;;;;4841774;29;20221;-86
2022/05/29 11:39:27;;;;;;;6.30;2.53;;;11.10;80.70;;;;;;4911088;29;20253;-90
2022/05/29 11:42:13;;;;;;;4.25;2.80;;;10.50;84.60;;;;;;4899875;29;20642;-87
2022/05/29 11:51:15;;;;;;;6.15;3.15;;;9.90;91.70;;;;;;4902820;29;20394;-87
2022/05/29 11:53:52;;;;;;;4.43;2.70;;;9.90;92.40;;;;;;4895038;29;20238;-89
2022/05/29 12:29:45;;;;;;;4.88;2.78;;;9.50;97.90;;;;;;4861165;29;20204;-89
2022/05/29 12:42:11;;;;;;;6.28;3.05;;;9.10;98.90;;;;;;4750843;30;20336;-90
2022/05/29 12:58:40;;;;;;;4.45;2.90;;;10.40;97.50;;;;;;4859022;29;20266;-88
2022/05/29 13:01:56;;;;;;;5.82;3.10;;;10.40;96.60;;;;;;4857704;29;20217;-88
2022/05/29 13:05:20;;;;;;;2.45;2.25;;;10.20;96.60;;;;;;4784052;30;20308;-88
2022/05/29 13:22:08;;;;;;;2.65;1.70;;;11.40;93.60;;;;;;4853173;29;20196;-86
2022/05/29 14:23:36;;;;;;;2.53;1.60;;;13.40;59.10;;;;;;4875328;29;20343;-85
2022/05/29 14:30:20;;;;;;;3.53;1.80;;;13.40;62.90;;;;;;4906200;29;20343;-86
2022/05/29 15:34:12;;;;;;;3.47;1.90;;;13.00;64.70;;;;;;4930636;29;20198;-88
2022/05/29 16:07:40;;;;;;;3.55;1.63;;;11.20;84.50;;;;;;4960527;28;20260;-87
2022/05/29 16:11:00;;;;;;;4.30;1.88;;;11.10;88.60;;;;;;4968469;28;20296;-86
2022/05/29 16:14:02;;;;;;;2.63;1.73;;;11.00;90.50;;;;;;4967517;28;20225;-87
2022/05/29 16:17:11;;;;;;;3.05;2.10;;;10.80;92.10;;;;;;4970281;28;20242;-86
2022/05/29 16:20:35;;;;;;;2.63;2.10;;;10.60;93.60;;;;;;4968003;28;20206;-87
2022/05/29 16:24:06;;;;;;;2.90;2.17;;;10.40;94.80;;;;;;4971228;28;20208;-87
2022/05/29 16:27:07;;;;;;;3.78;2.05;;;10.30;95.80;;;;;;4970311;28;20211;-87
2022/05/29 16:30:05;;;;;;;3.72;2.55;;;10.30;96.50;;;;;;4968192;28;20210;-89
2022/05/29 16:33:07;;;;;;;3.17;2.15;;;10.20;96.30;;;;;;4966878;29;20213;-87
2022/05/29 16:35:51;;;;;;;2.38;1.90;;;10.20;96.80;;;;;;4965572;29;20634;-87
2022/05/29 16:50:44;;;;;;;1.73;1.45;;;9.70;94.80;;;;;;4910261;29;20191;-86
2022/05/29 16:56:44;;;;;;;2.33;1.20;;;9.70;95.50;;;;;;4912328;29;20210;-85
2022/05/29 16:59:21;;;;;;;1.75;1.40;;;9.70;95.50;;;;;;4906202;29;20203;-87
2022/05/29 17:01:56;;;;;;;1.58;1.13;;;9.70;95.90;;;;;;4907253;29;20219;-86
2022/05/29 17:05:10;;;;;;;1.55;1.27;;;9.70;94.90;;;;;;4894930;29;20207;-85
2022/05/29 17:10:46;;;;;;;3.38;1.60;;;9.70;96.00;;;;;;4862746;29;20207;-86
2022/05/29 17:13:34;;;;;;;1.08;1.08;;;9.80;96.40;;;;;;4868209;29;20225;-85
2022/05/29 17:16:11;;;;;;;1.25;0.95;;;9.70;95.60;;;;;;4845887;29;20220;-84
2022/05/29 17:18:46;;;;;;;1.17;1.10;;;9.70;95.80;;;;;;4841987;29;20209;-86
2022/05/29 17:21:21;;;;;;;1.42;1.33;;;9.80;96.10;;;;;;4878774;29;20217;-85
2022/05/29 17:24:07;;;;;;;1.40;1.30;;;9.80;96.10;;;;;;4928258;29;20194;-85
2022/05/29 17:27:20;;;;;;;1.58;1.33;;;9.90;96.10;;;;;;4927254;29;20203;-85
2022/05/29 17:36:57;;;;;;;2.30;1.10;;;10.00;95.70;;;;;;4937758;29;20209;-86
2022/05/29 17:39:41;;;;;;;1.52;1.40;;;9.90;96.10;;;;;;4936902;29;20240;-86
2022/05/29 17:42:13;;;;;;;1.25;1.15;;;9.80;96.10;;;;;;4934739;29;20277;-86
2022/05/29 17:54:40;;;;;;;1.92;1.50;;;9.90;96.70;;;;;;4957140;28;20740;-85
2022/05/29 17:57:22;;;;;;;1.83;1.60;;;10.00;96.10;;;;;;4967994;28;20293;-85
2022/05/29 17:59:53;;;;;;;2.17;1.55;;;10.10;95.70;;;;;;4972345;28;20198;-84
2022/05/29 18:03:01;;;;;;;2.47;1.70;;;10.00;95.70;;;;;;4967066;28;20673;-85
2022/05/29 18:05:51;;;;;;;2.10;1.90;;;10.00;95.70;;;;;;4964585;28;20212;-84
2022/05/29 18:08:27;;;;;;;1.83;1.60;;;10.00;95.70;;;;;;4971499;28;20661;-84
2022/05/29 18:11:32;;;;;;;2.83;1.90;;;10.00;95.80;;;;;;4970749;28;20195;-84
2022/05/29 18:14:57;;;;;;;1.88;1.73;;;10.00;95.70;;;;;;4971223;28;20277;-85
2022/05/29 18:17:29;;;;;;;1.98;1.88;;;9.90;96.50;;;;;;4958554;28;20212;-86
2022/05/29 18:20:19;;;;;;;3.92;2.20;;;10.00;96.80;;;;;;4970924;29;20202;-85
2022/05/29 18:23:04;;;;;;;;;;;;;;;;;;;;;
2022/05/29 18:25:32;;;;;;;2.47;2.25;;;10.20;96.60;;;;;;4952280;29;20265;-86
2022/05/29 18:28:16;;;;;;;2.55;2.05;;;10.10;96.20;;;;;;4971757;29;20216;-85
2022/05/29 18:31:18;;;;;;;3.13;2.15;;;10.00;96.60;;;;;;4909781;29;20208;-85
2022/05/29 18:34:27;;;;;;;2.15;1.90;;;10.00;96.90;;;;;;4889353;29;20270;-85
2022/05/29 18:40:57;;;;;;;;;;;;;;;;;;;;;
2022/05/29 18:43:40;;;;;;;1.95;1.67;;;10.00;95.70;;;;;;4858491;29;20222;-85
2022/05/29 18:46:08;;;;;;;2.40;1.70;;;10.10;96.00;;;;;;4853363;29;20217;-85
2022/05/29 18:52:15;;;;;;;1.98;1.88;;;9.90;96.40;;;;;;4877045;29;20201;-84
2022/05/29 18:55:15;;;;;;;2.33;1.98;;;9.90;97.00;;;;;;4861765;29;20812;-85
2022/05/29 18:57:45;;;;;;;2.38;1.90;;;9.70;96.90;;;;;;4875240;29;20216;-85
2022/05/29 19:00:26;;;;;;;1.90;1.67;;;9.60;97.30;;;;;;4879024;29;20241;-84
2022/05/29 19:06:13;;;;;;;1.73;1.63;;;9.60;97.90;;;;;;4970274;28;20991;-85
2022/05/29 19:08:41;;;;;;;2.30;1.98;;;9.60;97.60;;;;;;4969830;28;20218;-86
2022/05/29 19:11:17;;;;;;;2.90;1.90;;;9.50;97.50;;;;;;4970845;28;20277;-85
2022/05/29 19:13:58;;;;;;;2.00;1.80;;;9.30;97.50;;;;;;4970948;28;20220;-84
2022/05/29 19:16:28;;;;;;;1.70;1.60;;;9.20;97.80;;;;;;4968688;28;20236;-85
2022/05/29 19:19:11;;;;;;;2.88;1.33;;;9.20;97.30;;;;;;4971247;28;20208;-86
2022/05/29 19:22:05;;;;;;;1.90;1.73;;;9.10;97.50;;;;;;4966275;28;20197;-84
2022/05/29 19:24:42;;;;;;;3.30;1.80;;;8.90;97.60;;;;;;4971459;28;20209;-84
2022/05/29 19:27:37;;;;;;;2.20;2.00;;;8.80;98.30;;;;;;4969265;28;20225;-85
2022/05/29 19:30:10;;;;;;;2.30;2.10;;;8.70;98.50;;;;;;4966465;28;20206;-87
2022/05/29 19:36:38;;;;;;;3.65;2.58;;;8.70;99.00;;;;;;4915486;29;20271;-85
2022/05/29 19:39:07;;;;;;;4.43;2.30;;;8.60;99.00;;;;;;4970517;28;20204;-86
2022/05/29 19:45:28;;;;;;;3.70;2.97;;;8.50;99.10;;;;;;4967809;28;20207;-85
2022/05/29 19:48:28;;;;;;;3.20;2.90;;;8.40;99.20;;;;;;4970638;28;20205;-85
2022/05/29 19:51:21;;;;;;;3.70;3.10;;;8.50;99.20;;;;;;4962100;28;20208;-85
2022/05/29 19:54:01;;;;;;;4.45;3.00;;;8.40;99.00;;;;;;4971655;28;20213;-84
2022/05/29 19:56:39;;;;;;;3.83;3.33;;;8.40;99.30;;;;;;4970242;28;20253;-86
2022/05/29 19:59:08;;;;;;;3.58;3.22;;;8.40;99.10;;;;;;4964814;28;20217;-85
2022/05/29 20:01:57;;;;;;;5.43;4.38;;;8.30;99.30;;;;;;4967025;28;20205;-84
2022/05/29 20:07:20;;;;;;;7.70;4.00;;;8.30;99.30;;;;;;4970922;28;20241;-84
2022/05/29 20:13:03;;;;;;;5.88;3.30;;;8.30;99.30;;;;;;4960343;28;20216;-84
2022/05/29 20:18:17;;;;;;;3.47;3.17;;;8.30;99.50;;;;;;4966897;28;20562;-85
2022/05/29 20:20:54;;;;;;;3.45;2.92;;;8.30;99.50;;;;;;4965623;28;20205;-84
2022/05/29 20:23:23;;;;;;;4.20;2.80;;;8.30;99.50;;;;;;4966333;28;20220;-84
2022/05/29 20:26:11;;;;;;;2.60;2.40;;;8.20;99.30;;;;;;4967782;28;20284;-85
2022/05/29 20:29:18;;;;;;;2.97;2.70;;;8.10;99.50;;;;;;4967219;28;20206;-85
2022/05/29 20:31:50;;;;;;;3.08;2.53;;;8.10;99.80;;;;;;4967004;28;20209;-84
2022/05/29 20:37:27;;;;;;;7.32;2.97;;;8.20;99.90;;;;;;4967152;28;20552;-85
2022/05/29 20:40:17;;;;;;;3.40;2.97;;;8.20;99.90;;;;;;4968326;28;20213;-85
2022/05/29 20:43:31;;;;;;;4.07;3.55;;;8.30;99.90;;;;;;4967117;28;20205;-87
2022/05/29 20:48:59;;;;;;;4.30;3.58;;;8.20;99.90;;;;;;4965660;29;20799;-84
2022/05/29 20:51:29;;;;;;;3.60;3.30;;;8.10;99.90;;;;;;4969353;28;20209;-84
2022/05/29 20:54:07;;;;;;;4.68;3.20;;;8.10;99.90;;;;;;4964515;28;20209;-84
2022/05/29 20:56:45;;;;;;;5.85;3.22;;;8.10;99.90;;;;;;4964342;28;20307;-84
2022/05/29 21:02:54;;;;;;;4.10;3.40;;;8.20;99.80;;;;;;4961165;29;20196;-84
2022/05/29 21:05:21;;;;;;;5.18;4.25;;;8.20;99.70;;;;;;4961822;28;20205;-85
2022/05/29 21:08:15;;;;;;;4.68;4.18;;;8.20;99.50;;;;;;4968886;28;20213;-85
2022/05/29 21:11:22;;;;;;;5.15;3.92;;;8.10;99.40;;;;;;4967115;28;20206;-84
2022/05/29 21:13:50;;;;;;;4.93;3.90;;;8.00;99.80;;;;;;4969778;28;20300;-84
2022/05/29 21:16:28;;;;;;;4.88;3.70;;;8.00;99.70;;;;;;4968245;28;20288;-84
2022/05/29 21:18:54;;;;;;;4.90;3.92;;;7.90;99.80;;;;;;4966045;28;20221;-84
2022/05/29 21:22:03;;;;;;;4.18;3.53;;;7.80;99.90;;;;;;4965460;28;20273;-84
2022/05/29 21:24:33;;;;;;;3.58;3.28;;;7.80;99.90;;;;;;4967424;28;20277;-85
2022/05/29 21:27:05;;;;;;;3.42;3.03;;;7.80;99.90;;;;;;4970328;28;20212;-84
2022/05/29 21:29:34;;;;;;;5.50;3.70;;;7.90;99.80;;;;;;4975264;28;20233;-84
2022/05/29 21:32:01;;;;;;;5.47;3.92;;;7.90;99.80;;;;;;4964581;28;20214;-87
2022/05/29 21:34:39;;;;;;;4.43;4.00;;;7.80;99.70;;;;;;4965425;28;20199;-87
2022/05/29 21:40:37;;;;;;;3.70;3.40;;;7.80;99.90;;;;;;4964735;28;20208;-86
2022/05/29 21:43:23;;;;;;;3.57;3.27;;;7.80;99.90;;;;;;4964359;28;20209;-85
2022/05/29 21:45:59;;;;;;;4.77;3.10;;;7.90;99.90;;;;;;4967233;28;20215;-84
2022/05/29 21:48:26;;;;;;;4.40;3.17;;;7.90;99.80;;;;;;4969381;28;20220;-84
2022/05/29 21:51:22;;;;;;;3.42;3.13;;;7.90;99.80;;;;;;4978786;28;20291;-87
2022/05/29 21:53:50;;;;;;;3.03;2.80;;;7.80;99.60;;;;;;4978274;28;20212;-85
2022/05/29 21:56:37;;;;;;;3.73;2.40;;;7.70;99.80;;;;;;4964342;28;20232;-84
2022/05/29 21:59:30;;;;;;;3.40;3.10;;;7.70;99.80;;;;;;4971838;28;20205;-84
2022/05/29 22:02:11;;;;;;;3.73;2.67;;;7.70;99.50;;;;;;4972746;28;20202;-84
2022/05/29 22:04:38;;;;;;;3.40;2.70;;;7.50;99.70;;;;;;4976922;28;20211;-84
2022/05/29 22:07:09;;;;;;;3.13;2.77;;;7.50;99.90;;;;;;4976355;28;20210;-85
2022/05/29 22:09:37;;;;;;;3.20;2.63;;;7.50;99.90;;;;;;4971002;28;20213;-85
2022/05/29 22:12:04;;;;;;;3.13;2.77;;;7.40;99.90;;;;;;4971149;28;20684;-85
2022/05/29 22:14:57;;;;;;;3.40;2.53;;;7.40;99.90;;;;;;4972267;28;20272;-84
2022/05/29 22:17:27;;;;;;;3.10;2.80;;;7.30;99.90;;;;;;4964248;28;20618;-85
2022/05/29 22:19:58;;;;;;;3.20;2.90;;;7.30;99.90;;;;;;4971047;28;20209;-84
2022/05/29 22:22:26;;;;;;;3.50;2.90;;;7.30;99.90;;;;;;4980228;28;20217;-84
2022/05/29 22:25:16;;;;;;;4.17;2.90;;;7.40;99.90;;;;;;4971918;29;20539;-84
2022/05/29 22:27:46;;;;;;;3.60;3.00;;;7.40;99.90;;;;;;4970680;28;20218;-84
2022/05/29 22:30:22;;;;;;;4.83;3.17;;;7.30;99.90;;;;;;4969785;28;20201;-84
2022/05/29 22:32:58;;;;;;;3.00;2.70;;;7.20;99.90;;;;;;4968567;28;20216;-84
2022/05/29 22:35:38;;;;;;;2.83;2.57;;;7.20;99.90;;;;;;4971065;28;20772;-86
2022/05/29 22:38:10;;;;;;;2.87;2.63;;;7.20;99.90;;;;;;4971242;28;20537;-84
2022/05/29 22:40:40;;;;;;;2.70;2.50;;;7.40;99.90;;;;;;4971101;28;20217;-84
2022/05/29 22:43:15;;;;;;;2.93;2.37;;;7.50;99.90;;;;;;4971518;28;20261;-85
2022/05/29 22:45:51;;;;;;;3.10;2.47;;;7.50;99.60;;;;;;4968229;28;20205;-84
2022/05/29 22:48:38;;;;;;;2.53;2.33;;;7.40;99.40;;;;;;4970263;28;20291;-84
2022/05/29 22:51:11;;;;;;;2.80;2.60;;;7.30;99.40;;;;;;4970633;28;20205;-85
2022/05/29 22:54:21;;;;;;;4.17;2.60;;;7.20;99.70;;;;;;4969501;28;20256;-84
2022/05/29 22:57:10;;;;;;;3.83;2.77;;;7.20;99.90;;;;;;4970445;28;20225;-89
2022/05/29 22:59:40;;;;;;;3.23;2.80;;;7.20;99.90;;;;;;4970323;28;20664;-85
2022/05/29 23:02:16;;;;;;;2.50;2.30;;;7.20;99.90;;;;;;4966747;28;20208;-84
2022/05/29 23:04:46;;;;;;;3.63;2.43;;;7.20;99.90;;;;;;4970867;28;20264;-85
2022/05/29 23:07:28;;;;;;;2.90;2.60;;;7.30;99.70;;;;;;4968603;28;20236;-84
2022/05/29 23:10:10;;;;;;;3.07;2.77;;;7.20;99.50;;;;;;4971153;28;20224;-85
2022/05/29 23:12:38;;;;;;;3.27;2.47;;;7.20;99.70;;;;;;4965705;28;20238;-84
2022/05/29 23:15:22;;;;;;;2.50;2.30;;;7.20;99.70;;;;;;4974543;28;20228;-84
2022/05/29 23:17:49;;;;;;;2.83;2.60;;;7.20;99.40;;;;;;4970950;28;20269;-84
2022/05/29 23:20:29;;;;;;;2.70;2.40;;;7.20;99.30;;;;;;4966791;28;20226;-84
2022/05/29 23:22:58;;;;;;;3.30;2.17;;;7.20;99.00;;;;;;4969581;28;20292;-84
2022/05/29 23:25:34;;;;;;;3.73;2.33;;;7.20;99.00;;;;;;4970391;28;20198;-85
2022/05/29 23:28:01;;;;;;;2.57;2.37;;;7.10;99.00;;;;;;4961195;28;20207;-84
2022/05/29 23:30:44;;;;;;;2.37;2.00;;;7.00;99.00;;;;;;4969630;28;20209;-85
2022/05/29 23:33:39;;;;;;;2.77;2.37;;;7.00;98.90;;;;;;4969697;28;20185;-85
2022/05/29 23:36:08;;;;;;;3.70;2.40;;;7.10;98.90;;;;;;4966332;28;20221;-85
2022/05/29 23:38:35;;;;;;;2.33;2.13;;;7.10;98.90;;;;;;4969519;28;20270;-84
2022/05/29 23:44:23;;;;;;;6.80;2.37;;;7.00;98.70;;;;;;4966104;28;20240;-87
2022/05/29 23:47:10;;;;;;;2.63;2.00;;;7.00;99.00;;;;;;4969235;28;20257;-84
2022/05/29 23:49:59;;;;;;;2.90;2.27;;;6.90;99.00;;;;;;4969667;28;20223;-84
2022/05/29 23:52:54;;;;;;;2.60;2.40;;;6.90;98.90;;;;;;4969178;28;20296;-85
2022/05/29 23:55:22;;;;;;;2.10;2.00;;;6.80;98.70;;;;;;4969593;28;20215;-85
2022/05/29 23:57:49;;;;;;;3.73;2.23;;;6.70;99.00;;;;;;4969186;28;20215;-84
